createdAt,value
2023-04-16T00:01:04.113Z,8.3
2023-04-16T00:03:30.217Z,8.3
2023-04-16T00:05:56.311Z,8.3
2023-04-16T00:08:22.407Z,8.3
2023-04-16T00:10:48.503Z,8.3
2023-04-16T00:13:14.593Z,8.3
2023-04-16T00:15:40.697Z,8.3
2023-04-16T00:18:06.776Z,8.3
2023-04-16T00:20:32.879Z,8.3
2023-04-16T00:22:57.986Z,8.3
2023-04-16T00:25:24.077Z,8.3
2023-04-16T00:27:50.186Z,8.3
2023-04-16T00:30:16.299Z,8.3
2023-04-16T00:32:42.381Z,8.3
2023-04-16T00:35:08.467Z,8.3
2023-04-16T00:37:34.561Z,8.3
2023-04-16T00:40:00.657Z,8.3
2023-04-16T00:42:26.764Z,8.3
2023-04-16T00:44:52.843Z,8.3
2023-04-16T00:47:18.956Z,8.3
2023-04-16T00:49:45.048Z,8.3
2023-04-16T00:52:11.141Z,8.3
2023-04-16T00:54:36.237Z,8.3
2023-04-16T00:57:02.358Z,8.3
2023-04-16T00:59:28.461Z,8.3
2023-04-16T01:01:54.556Z,8.3
2023-04-16T01:04:20.625Z,8.3
2023-04-16T01:06:46.741Z,8.3
2023-04-16T01:09:12.829Z,8.3
2023-04-16T01:11:38.916Z,8.3
2023-04-16T01:14:05.026Z,8.3
2023-04-16T01:16:31.121Z,8.3
2023-04-16T01:18:57.215Z,8.3
2023-04-16T01:21:23.301Z,8.3
2023-04-16T01:23:49.412Z,8.3
2023-04-16T01:26:14.513Z,8.3
2023-04-16T01:28:40.609Z,8.3
2023-04-16T01:31:06.702Z,8.3
2023-04-16T01:33:32.805Z,8.3
2023-04-16T01:35:58.912Z,8.3
2023-04-16T01:38:25.004Z,8.2
2023-04-16T01:40:51.095Z,8.2
2023-04-16T01:43:17.191Z,8.2
2023-04-16T01:45:43.277Z,8.2
2023-04-16T01:48:09.387Z,8.2
2023-04-16T01:50:35.486Z,8.2
2023-04-16T01:53:01.557Z,8.2
2023-04-16T01:55:27.667Z,8.2
2023-04-16T01:57:52.776Z,8.2
2023-04-16T02:00:18.879Z,8.2
2023-04-16T02:02:44.972Z,8.2
2023-04-16T02:05:11.073Z,8.2
2023-04-16T02:07:37.156Z,8.2
2023-04-16T02:10:03.262Z,8.2
2023-04-16T02:12:29.387Z,8.2
2023-04-16T02:14:55.448Z,8.2
2023-04-16T02:17:21.574Z,8.2
2023-04-16T02:19:47.644Z,8.2
2023-04-16T02:22:13.731Z,8.2
2023-04-16T02:24:39.821Z,8.2
2023-04-16T02:27:05.935Z,8.2
2023-04-16T02:29:31.049Z,8.2
2023-04-16T02:31:57.123Z,8.2
2023-04-16T02:34:23.236Z,8.2
2023-04-16T02:36:49.325Z,8.2
2023-04-16T02:39:15.447Z,8.2
2023-04-16T02:41:41.541Z,8.2
2023-04-16T02:44:07.638Z,8.2
2023-04-16T02:46:33.711Z,8.2
2023-04-16T02:48:59.801Z,8.2
2023-04-16T02:51:25.919Z,8.2
2023-04-16T02:53:51.996Z,8.2
2023-04-16T02:56:18.087Z,8.2
2023-04-16T02:58:44.212Z,8.2
2023-04-16T03:01:09.310Z,8.2
2023-04-16T03:03:35.391Z,8.2
2023-04-16T03:06:01.500Z,8.2
2023-04-16T03:08:27.588Z,8.2
2023-04-16T03:10:53.686Z,8.2
2023-04-16T03:13:19.793Z,8.2
2023-04-16T03:15:45.886Z,8.2
2023-04-16T03:18:11.973Z,8.2
2023-04-16T03:20:38.069Z,8.2
2023-04-16T03:23:04.168Z,8.1
2023-04-16T03:25:30.286Z,8.2
2023-04-16T03:27:56.351Z,8.1
2023-04-16T03:30:22.457Z,8.1
2023-04-16T03:32:47.575Z,8.1
2023-04-16T03:35:13.673Z,8.1
2023-04-16T03:37:39.762Z,8.1
2023-04-16T03:40:05.863Z,8.1
2023-04-16T03:42:31.950Z,8.1
2023-04-16T03:44:58.057Z,8.1
2023-04-16T03:47:24.132Z,8.1
2023-04-16T03:49:50.244Z,8.1
2023-04-16T03:52:16.344Z,8.2
2023-04-16T03:54:42.431Z,8.1
2023-04-16T03:57:08.545Z,8.2
2023-04-16T03:59:34.631Z,8.2
2023-04-16T04:02:00.748Z,8.2
2023-04-16T04:04:25.825Z,8.1
2023-04-16T04:06:51.953Z,8.1
2023-04-16T04:09:18.037Z,8.1
2023-04-16T04:11:44.125Z,8.1
2023-04-16T04:14:10.227Z,8.1
2023-04-16T04:16:36.326Z,8.1
2023-04-16T04:19:02.419Z,8.1
2023-04-16T04:21:28.514Z,8.1
2023-04-16T04:23:54.598Z,8.2
2023-04-16T04:26:20.702Z,8.1
2023-04-16T04:28:46.797Z,8.2
2023-04-16T04:31:12.892Z,8.2
2023-04-16T04:33:38.993Z,8.2
2023-04-16T04:36:04.098Z,8.2
2023-04-16T04:38:30.179Z,8.2
2023-04-16T04:40:56.288Z,8.2
2023-04-16T04:43:22.375Z,8.2
2023-04-16T04:45:48.488Z,8.2
2023-04-16T04:48:14.587Z,8.2
2023-04-16T04:50:40.712Z,8.2
2023-04-16T04:53:06.771Z,8.2
2023-04-16T04:55:32.867Z,8.2
2023-04-16T04:57:58.958Z,8.2
2023-04-16T05:00:25.061Z,8.2
2023-04-16T05:02:51.168Z,8.2
2023-04-16T05:05:17.269Z,8.2
2023-04-16T05:07:42.369Z,8.2
2023-04-16T05:10:08.469Z,8.2
2023-04-16T05:12:34.559Z,8.2
2023-04-16T05:15:00.650Z,8.2
2023-04-16T05:17:26.741Z,8.2
2023-04-16T05:19:52.851Z,8.2
2023-04-16T05:22:18.936Z,8.2
2023-04-16T05:24:45.042Z,8.2
2023-04-16T05:27:11.125Z,8.2
2023-04-16T05:29:37.233Z,8.2
2023-04-16T05:32:03.336Z,8.2
2023-04-16T05:34:29.434Z,8.3
2023-04-16T05:36:55.513Z,8.3
2023-04-16T05:39:20.622Z,8.3
2023-04-16T05:41:46.728Z,8.3
2023-04-16T05:44:12.812Z,8.3
2023-04-16T05:46:38.920Z,8.3
2023-04-16T05:49:05.012Z,8.3
2023-04-16T05:51:31.109Z,8.3
2023-04-16T05:53:57.207Z,8.3
2023-04-16T05:56:23.287Z,8.3
2023-04-16T05:58:49.387Z,8.3
2023-04-16T06:01:15.499Z,8.3
2023-04-16T06:03:41.597Z,8.3
2023-04-16T06:06:07.679Z,8.3
2023-04-16T06:08:33.857Z,8.3
2023-04-16T06:10:58.941Z,8.3
2023-04-16T06:13:24.993Z,8.3
2023-04-16T06:15:51.101Z,8.3
2023-04-16T06:18:17.223Z,8.3
2023-04-16T06:20:43.329Z,8.3
2023-04-16T06:23:09.390Z,8.3
2023-04-16T06:25:35.474Z,8.3
2023-04-16T06:28:01.585Z,8.3
2023-04-16T06:30:27.672Z,8.3
2023-04-16T06:32:53.883Z,8.3
2023-04-16T06:35:19.915Z,8.3
2023-04-16T06:37:46.060Z,8.3
2023-04-16T06:40:12.127Z,8.3
2023-04-16T06:42:37.196Z,8.3
2023-04-16T06:45:03.282Z,8.4
2023-04-16T06:47:29.393Z,8.4
2023-04-16T06:49:55.564Z,8.4
2023-04-16T06:52:21.580Z,8.4
2023-04-16T06:54:47.689Z,8.4
2023-04-16T06:57:13.753Z,8.4
2023-04-16T06:59:39.873Z,8.4
2023-04-16T07:02:05.921Z,8.4
2023-04-16T07:04:32.042Z,8.4
2023-04-16T07:06:58.117Z,8.4
2023-04-16T07:09:24.212Z,8.4
2023-04-16T07:11:50.311Z,8.4
2023-04-16T07:14:16.449Z,8.4
2023-04-16T07:16:42.525Z,8.4
2023-04-16T07:19:08.600Z,8.4
2023-04-16T07:21:34.701Z,8.4
2023-04-16T07:24:00.796Z,8.4
2023-04-16T07:26:26.891Z,8.4
2023-04-16T07:28:52.981Z,8.4
2023-04-16T07:31:19.116Z,8.4
2023-04-16T07:33:45.198Z,8.4
2023-04-16T07:36:11.283Z,8.4
2023-04-16T07:38:37.368Z,8.4
2023-04-16T07:41:03.488Z,8.4
2023-04-16T07:45:55.668Z,8.5
2023-04-16T07:48:20.789Z,8.5
2023-04-16T07:50:46.883Z,8.5
2023-04-16T07:53:12.991Z,8.5
2023-04-16T07:55:39.086Z,8.5
2023-04-16T07:58:05.165Z,8.6
2023-04-16T08:00:31.274Z,8.6
2023-04-16T08:02:57.422Z,8.6
2023-04-16T08:05:23.440Z,8.6
2023-04-16T08:07:49.543Z,8.6
2023-04-16T08:10:15.640Z,8.6
2023-04-16T08:12:41.736Z,8.6
2023-04-16T08:15:07.860Z,8.6
2023-04-16T08:17:33.937Z,8.7
2023-04-16T08:20:00.034Z,8.7
2023-04-16T08:22:26.186Z,8.7
2023-04-16T08:24:52.213Z,8.7
2023-04-16T08:27:18.353Z,8.7
2023-04-16T08:29:44.407Z,8.7
2023-04-16T08:32:10.516Z,8.7
2023-04-16T08:34:36.609Z,8.8
2023-04-16T08:37:02.732Z,8.8
2023-04-16T08:39:28.800Z,8.8
2023-04-16T08:41:54.908Z,8.8
2023-04-16T08:44:21.000Z,8.8
2023-04-16T08:46:47.163Z,8.9
2023-04-16T08:49:13.269Z,8.9
2023-04-16T08:51:39.309Z,8.9
2023-04-16T08:54:05.364Z,9
2023-04-16T08:56:31.470Z,9
2023-04-16T08:58:57.567Z,9
2023-04-16T09:01:23.762Z,9.1
2023-04-16T09:03:49.808Z,9.1
2023-04-16T09:06:14.875Z,9.2
2023-04-16T09:08:40.965Z,9.2
2023-04-16T09:11:07.121Z,9.2
2023-04-16T09:13:33.148Z,9.2
2023-04-16T09:15:59.253Z,9.2
2023-04-16T09:18:25.395Z,9.2
2023-04-16T09:20:51.433Z,9.2
2023-04-16T09:23:17.546Z,9.2
2023-04-16T09:25:43.635Z,9.1
2023-04-16T09:28:09.734Z,9.1
2023-04-16T09:30:35.842Z,9.1
2023-04-16T09:33:01.915Z,9.1
2023-04-16T09:35:28.019Z,9.1
2023-04-16T09:37:54.108Z,9.1
2023-04-16T09:40:20.221Z,9.1
2023-04-16T09:42:46.334Z,9.1
2023-04-16T09:45:12.411Z,9.1
2023-04-16T09:47:38.491Z,9.1
2023-04-16T09:50:04.599Z,9.1
2023-04-16T09:52:30.691Z,9.1
2023-04-16T09:54:56.789Z,9.1
2023-04-16T09:57:22.930Z,9.1
2023-04-16T09:59:49.026Z,9.1
2023-04-16T10:02:15.093Z,9.1
2023-04-16T10:04:41.188Z,9.1
2023-04-16T10:07:07.283Z,9.1
2023-04-16T10:09:33.371Z,9.2
2023-04-16T10:11:59.523Z,9.2
2023-04-16T10:14:25.554Z,9.2
2023-04-16T10:16:51.666Z,9.2
2023-04-16T10:19:17.761Z,9.2
2023-04-16T10:21:43.857Z,9.2
2023-04-16T10:24:09.962Z,9.2
2023-04-16T10:26:36.024Z,9.2
2023-04-16T10:29:02.144Z,9.2
2023-04-16T10:31:28.271Z,9.2
2023-04-16T10:33:54.320Z,9.2
2023-04-16T10:36:20.492Z,9.2
2023-04-16T10:38:46.654Z,9.2
2023-04-16T10:41:12.916Z,9.1
2023-04-16T10:43:39.041Z,9.1
2023-04-16T10:46:05.099Z,9.1
2023-04-16T10:48:31.264Z,9.1
2023-04-16T10:50:57.502Z,9.1
2023-04-16T10:53:23.584Z,9.1
2023-04-16T10:55:48.756Z,9.1
2023-04-16T10:58:13.863Z,9
2023-04-16T11:00:39.946Z,9
2023-04-16T11:03:06.150Z,9
2023-04-16T11:05:32.148Z,9
2023-04-16T11:07:58.260Z,9
2023-04-16T11:10:24.343Z,9
2023-04-16T11:12:50.504Z,9
2023-04-16T11:15:16.529Z,9
2023-04-16T11:17:42.639Z,9
2023-04-16T11:20:08.729Z,9
2023-04-16T11:22:34.832Z,9
2023-04-16T11:25:00.915Z,9
2023-04-16T11:27:27.013Z,9
2023-04-16T11:29:52.174Z,9
2023-04-16T11:32:18.306Z,9
2023-04-16T11:34:44.314Z,9
2023-04-16T11:37:10.407Z,9
2023-04-16T11:39:36.501Z,9
2023-04-16T11:42:02.609Z,9
2023-04-16T11:44:28.694Z,9.1
2023-04-16T11:46:54.805Z,9.1
2023-04-16T11:49:20.895Z,9.1
2023-04-16T11:51:46.993Z,9.1
2023-04-16T11:54:13.083Z,9.1
2023-04-16T11:56:39.192Z,9.1
2023-04-16T11:59:05.289Z,9.2
2023-04-16T12:01:31.386Z,9.2
2023-04-16T12:03:57.476Z,9.2
2023-04-16T12:06:22.594Z,9.2
2023-04-16T12:08:47.711Z,9.3
2023-04-16T12:11:13.795Z,9.3
2023-04-16T12:13:39.990Z,9.3
2023-04-16T12:16:06.103Z,9.3
2023-04-16T12:18:32.089Z,9.3
2023-04-16T12:20:58.189Z,9.4
2023-04-16T12:23:24.279Z,9.4
2023-04-16T12:25:50.432Z,9.4
2023-04-16T12:28:16.471Z,9.4
2023-04-16T12:30:42.614Z,9.4
2023-04-16T12:33:08.661Z,9.4
2023-04-16T12:35:34.801Z,9.4
2023-04-16T12:38:00.852Z,9.4
2023-04-16T12:40:25.961Z,9.4
2023-04-16T12:42:52.059Z,9.4
2023-04-16T12:45:18.150Z,9.5
2023-04-16T12:47:44.243Z,9.4
2023-04-16T12:50:10.337Z,9.4
2023-04-16T12:52:36.424Z,9.5
2023-04-16T12:55:02.558Z,9.5
2023-04-16T12:57:27.652Z,9.5
2023-04-16T12:59:52.826Z,9.5
2023-04-16T13:02:18.848Z,9.5
2023-04-16T13:04:44.950Z,9.5
2023-04-16T13:07:11.050Z,9.5
2023-04-16T13:09:37.143Z,9.5
2023-04-16T13:12:03.256Z,9.5
2023-04-16T13:14:29.367Z,9.5
2023-04-16T13:16:55.437Z,9.5
2023-04-16T13:19:21.534Z,9.5
2023-04-16T13:21:47.624Z,9.5
2023-04-16T13:24:13.827Z,9.5
2023-04-16T13:26:39.897Z,9.5
2023-04-16T13:29:05.896Z,9.5
2023-04-16T13:31:31.022Z,9.6
2023-04-16T13:33:57.228Z,9.5
2023-04-16T13:36:23.213Z,9.6
2023-04-16T13:38:49.313Z,9.6
2023-04-16T13:41:15.419Z,9.6
2023-04-16T13:43:41.504Z,9.6
2023-04-16T13:46:07.632Z,9.6
2023-04-16T13:48:32.782Z,9.6
2023-04-16T13:50:57.877Z,9.6
2023-04-16T13:53:23.976Z,9.6
2023-04-16T13:55:50.136Z,9.6
2023-04-16T13:58:16.180Z,9.6
2023-04-16T14:00:42.227Z,9.6
2023-04-16T14:03:08.322Z,9.6
2023-04-16T14:05:34.445Z,9.6
2023-04-16T14:08:00.497Z,9.6
2023-04-16T14:10:26.595Z,9.6
2023-04-16T14:12:52.682Z,9.6
2023-04-16T14:15:18.777Z,9.6
2023-04-16T14:17:44.922Z,9.6
2023-04-16T14:20:10.964Z,9.6
2023-04-16T14:22:36.116Z,9.6
2023-04-16T14:25:02.167Z,9.6
2023-04-16T14:27:28.308Z,9.7
2023-04-16T14:29:54.381Z,9.7
2023-04-16T14:32:20.459Z,9.7
2023-04-16T14:34:46.567Z,9.7
2023-04-16T14:37:12.666Z,9.7
2023-04-16T14:39:37.801Z,9.7
2023-04-16T14:42:02.911Z,9.7
2023-04-16T14:44:28.018Z,9.7
2023-04-16T14:46:53.131Z,9.7
2023-04-16T14:49:19.315Z,9.7
2023-04-16T14:51:45.314Z,9.7
2023-04-16T14:54:11.430Z,9.7
2023-04-16T14:56:37.525Z,9.7
2023-04-16T14:59:03.650Z,9.8
2023-04-16T15:01:29.695Z,9.8
2023-04-16T15:03:55.804Z,9.8
2023-04-16T15:06:21.916Z,9.8
2023-04-16T15:08:47.993Z,9.8
2023-04-16T15:11:14.103Z,9.8
2023-04-16T15:13:40.255Z,9.8
2023-04-16T15:16:06.306Z,9.8
2023-04-16T15:18:31.388Z,9.8
2023-04-16T15:20:57.473Z,9.8
2023-04-16T15:23:23.649Z,9.8
2023-04-16T15:25:49.688Z,9.8
2023-04-16T15:28:15.782Z,9.8
2023-04-16T15:30:41.889Z,9.8
2023-04-16T15:33:07.958Z,9.8
2023-04-16T15:35:33.113Z,9.8
2023-04-16T15:37:58.207Z,9.8
2023-04-16T15:40:23.329Z,9.8
2023-04-16T15:42:48.422Z,9.8
2023-04-16T15:45:13.548Z,9.8
2023-04-16T15:47:38.673Z,9.8
2023-04-16T15:50:04.739Z,9.8
2023-04-16T15:52:30.849Z,9.8
2023-04-16T15:54:56.951Z,9.7
2023-04-16T15:57:22.066Z,9.7
2023-04-16T15:59:48.161Z,9.7
2023-04-16T16:02:14.262Z,9.7
2023-04-16T16:04:40.428Z,9.7
2023-04-16T16:07:06.456Z,9.7
2023-04-16T16:09:32.566Z,9.7
2023-04-16T16:11:58.659Z,9.7
2023-04-16T16:14:24.741Z,9.7
2023-04-16T16:16:50.827Z,9.6
2023-04-16T16:19:16.926Z,9.6
2023-04-16T16:21:43.016Z,9.6
2023-04-16T16:24:09.129Z,9.6
2023-04-16T16:26:35.206Z,9.6
2023-04-16T16:29:00.309Z,9.6
2023-04-16T16:31:26.419Z,9.6
2023-04-16T16:33:52.530Z,9.6
2023-04-16T16:36:17.627Z,9.6
2023-04-16T16:38:42.735Z,9.7
2023-04-16T16:41:08.838Z,9.7
2023-04-16T16:43:34.961Z,9.7
2023-04-16T16:46:01.057Z,9.7
2023-04-16T16:48:27.136Z,9.7
2023-04-16T16:50:53.226Z,9.7
2023-04-16T16:53:19.334Z,9.7
2023-04-16T16:55:45.447Z,9.6
2023-04-16T16:58:11.502Z,9.6
2023-04-16T17:00:37.632Z,9.6
2023-04-16T17:03:03.699Z,9.6
2023-04-16T17:05:29.835Z,9.6
2023-04-16T17:07:55.908Z,9.6
2023-04-16T17:10:21.025Z,9.6
2023-04-16T17:12:47.094Z,9.6
2023-04-16T17:15:13.193Z,9.6
2023-04-16T17:17:39.285Z,9.6
2023-04-16T17:20:05.394Z,9.6
2023-04-16T17:22:31.484Z,9.6
2023-04-16T17:24:57.580Z,9.6
2023-04-16T17:27:22.692Z,9.6
2023-04-16T17:29:47.805Z,9.6
2023-04-16T17:32:12.934Z,9.6
2023-04-16T17:34:38.038Z,9.6
2023-04-16T17:37:04.131Z,9.6
2023-04-16T17:39:30.248Z,9.5
2023-04-16T17:41:56.335Z,9.5
2023-04-16T17:44:22.430Z,9.5
2023-04-16T17:46:48.521Z,9.5
2023-04-16T17:49:14.626Z,9.5
2023-04-16T17:51:40.708Z,9.5
2023-04-16T17:54:06.803Z,9.5
2023-04-16T17:56:32.905Z,9.5
2023-04-16T17:58:59.001Z,9.6
2023-04-16T18:01:25.101Z,9.6
2023-04-16T18:03:51.189Z,9.6
2023-04-16T18:06:16.294Z,9.5
2023-04-16T18:08:42.400Z,9.5
2023-04-16T18:11:08.478Z,9.5
2023-04-16T18:13:34.633Z,9.5
2023-04-16T18:16:00.687Z,9.5
2023-04-16T18:18:26.775Z,9.5
2023-04-16T18:20:52.856Z,9.5
2023-04-16T18:23:18.046Z,9.5
2023-04-16T18:25:43.138Z,9.5
2023-04-16T18:28:08.229Z,9.5
2023-04-16T18:30:33.447Z,9.5
2023-04-16T18:32:59.465Z,9.5
2023-04-16T18:35:24.555Z,9.5
2023-04-16T18:37:49.707Z,9.5
2023-04-16T18:40:15.796Z,9.5
2023-04-16T18:42:41.851Z,9.5
2023-04-16T18:45:07.932Z,9.5
2023-04-16T18:47:34.051Z,9.5
2023-04-16T18:50:00.140Z,9.5
2023-04-16T18:52:26.246Z,9.5
2023-04-16T18:54:52.335Z,9.5
2023-04-16T18:57:18.438Z,9.5
2023-04-16T18:59:44.547Z,9.5
2023-04-16T19:02:10.676Z,9.5
2023-04-16T19:04:36.718Z,9.5
2023-04-16T19:07:02.816Z,9.5
2023-04-16T19:09:27.949Z,9.5
2023-04-16T19:11:54.004Z,9.5
2023-04-16T19:14:20.108Z,9.5
2023-04-16T19:16:46.206Z,9.5
2023-04-16T19:19:12.300Z,9.5
2023-04-16T19:21:38.400Z,9.5
2023-04-16T19:24:04.492Z,9.5
2023-04-16T19:26:29.678Z,9.5
2023-04-16T19:28:54.720Z,9.5
2023-04-16T19:31:19.851Z,9.5
2023-04-16T19:33:44.980Z,9.5
2023-04-16T19:36:11.153Z,9.5
2023-04-16T19:38:37.172Z,9.4
2023-04-16T19:41:03.250Z,9.4
2023-04-16T19:43:29.334Z,9.4
2023-04-16T19:45:55.436Z,9.5
2023-04-16T19:48:21.541Z,9.5
2023-04-16T19:50:47.630Z,9.5
2023-04-16T19:53:13.753Z,9.5
2023-04-16T19:55:39.823Z,9.5
2023-04-16T19:58:05.929Z,9.4
2023-04-16T20:00:32.001Z,9.4
2023-04-16T20:02:58.114Z,9.4
2023-04-16T20:05:23.234Z,9.4
2023-04-16T20:07:49.343Z,9.4
2023-04-16T20:10:15.408Z,9.4
2023-04-16T20:12:41.535Z,9.4
2023-04-16T20:15:07.605Z,9.4
2023-04-16T20:17:33.682Z,9.4
2023-04-16T20:19:59.783Z,9.4
2023-04-16T20:22:24.909Z,9.4
2023-04-16T20:24:50.019Z,9.4
2023-04-16T20:27:15.144Z,9.4
2023-04-16T20:29:40.276Z,9.4
2023-04-16T20:32:06.355Z,9.4
2023-04-16T20:34:32.569Z,9.4
2023-04-16T20:36:58.534Z,9.4
2023-04-16T20:39:24.662Z,9.4
2023-04-16T20:41:50.728Z,9.4
2023-04-16T20:44:16.815Z,9.4
2023-04-16T20:46:42.924Z,9.4
2023-04-16T20:49:09.015Z,9.4
2023-04-16T20:51:35.116Z,9.4
2023-04-16T20:54:01.352Z,9.4
2023-04-16T20:56:27.300Z,9.4
2023-04-16T20:58:53.406Z,9.4
2023-04-16T21:01:18.643Z,9.4
2023-04-16T21:03:44.662Z,9.4
2023-04-16T21:06:10.764Z,9.4
2023-04-16T21:08:36.782Z,9.4
2023-04-16T21:11:02.902Z,9.4
2023-04-16T21:13:29.003Z,9.4
2023-04-16T21:15:55.090Z,9.4
2023-04-16T21:18:20.252Z,9.4
2023-04-16T21:20:45.341Z,9.4
2023-04-16T21:23:11.420Z,9.4
2023-04-16T21:25:37.510Z,9.4
2023-04-16T21:28:03.593Z,9.4
2023-04-16T21:30:29.743Z,9.4
2023-04-16T21:32:55.782Z,9.4
2023-04-16T21:35:21.901Z,9.4
2023-04-16T21:37:47.995Z,9.4
2023-04-16T21:40:14.085Z,9.4
2023-04-16T21:42:40.175Z,9.4
2023-04-16T21:45:06.256Z,9.4
2023-04-16T21:47:32.350Z,9.4
2023-04-16T21:49:58.463Z,9.4
2023-04-16T21:52:23.587Z,9.4
2023-04-16T21:54:49.664Z,9.4
2023-04-16T21:57:15.764Z,9.4
2023-04-16T21:59:41.863Z,9.4
2023-04-16T22:02:07.978Z,9.4
2023-04-16T22:04:34.048Z,9.4
2023-04-16T22:07:00.137Z,9.3
2023-04-16T22:09:26.230Z,9.3
2023-04-16T22:11:52.404Z,9.3
2023-04-16T22:14:18.427Z,9.3
2023-04-16T22:16:44.542Z,9.3
2023-04-16T22:19:10.620Z,9.3
2023-04-16T22:21:35.755Z,9.3
2023-04-16T22:24:00.855Z,9.3
2023-04-16T22:26:26.984Z,9.3
2023-04-16T22:28:53.057Z,9.3
2023-04-16T22:31:19.176Z,9.3
2023-04-16T22:33:45.321Z,9.3
2023-04-16T22:36:11.362Z,9.3
2023-04-16T22:38:37.441Z,9.3
2023-04-16T22:41:03.556Z,9.3
2023-04-16T22:43:29.704Z,9.3
2023-04-16T22:45:55.701Z,9.3
2023-04-16T22:48:21.811Z,9.3
2023-04-16T22:50:47.907Z,9.3
2023-04-16T22:53:14.009Z,9.3
2023-04-16T22:55:39.111Z,9.2
2023-04-16T22:58:05.215Z,9.2
2023-04-16T23:00:31.297Z,9.2
2023-04-16T23:02:57.391Z,9.2
2023-04-16T23:05:23.503Z,9.2
2023-04-16T23:07:49.595Z,9.2
2023-04-16T23:10:15.708Z,9.2
2023-04-16T23:12:40.809Z,9.2
2023-04-16T23:15:05.980Z,9.2
2023-04-16T23:17:31.043Z,9.2
2023-04-16T23:19:56.161Z,9.2
2023-04-16T23:22:21.278Z,9.2
2023-04-16T23:24:46.388Z,9.2
2023-04-16T23:27:12.485Z,9.2
2023-04-16T23:29:38.583Z,9.2
2023-04-16T23:32:04.676Z,9.2
2023-04-16T23:34:30.774Z,9.2
2023-04-16T23:36:56.858Z,9.2
2023-04-16T23:39:22.962Z,9.2
2023-04-16T23:41:49.055Z,9.2
2023-04-16T23:44:15.157Z,9.2
2023-04-16T23:46:41.261Z,9.2
2023-04-16T23:49:07.348Z,9.2
2023-04-16T23:51:33.469Z,9.2
2023-04-16T23:53:59.558Z,9.2
2023-04-16T23:56:24.732Z,9.2
2023-04-16T23:58:50.788Z,9.2
